createdAt,value
2018-06-21T00:00:06.493Z,2.50
2018-06-21T00:02:34.860Z,2.70
2018-06-21T00:05:03.707Z,2.17
2018-06-21T00:07:32.328Z,2.80
2018-06-21T00:10:00.735Z,1.90
2018-06-21T00:12:29.141Z,2.13
2018-06-21T00:14:57.547Z,2.07
2018-06-21T00:17:25.919Z,2.27
2018-06-21T00:19:54.863Z,2.47
2018-06-21T00:22:24.391Z,3.17
2018-06-21T00:24:53.099Z,2.40
2018-06-21T00:27:21.452Z,2.33
2018-06-21T00:29:49.915Z,2.13
2018-06-21T00:32:18.535Z,1.90
2018-06-21T00:34:47.491Z,2.00
2018-06-21T00:37:15.836Z,2.00
2018-06-21T00:39:44.751Z,2.20
2018-06-21T00:42:13.540Z,2.50
2018-06-21T00:44:41.892Z,2.40
2018-06-21T00:47:10.265Z,2.47
2018-06-21T00:49:38.632Z,1.80
2018-06-21T00:52:07.098Z,1.90
2018-06-21T00:54:35.868Z,2.70
2018-06-21T00:57:04.226Z,2.70
2018-06-21T00:59:33.143Z,2.40
2018-06-21T01:02:03.904Z,1.97
2018-06-21T01:04:32.280Z,2.43
2018-06-21T01:07:01.325Z,2.50
2018-06-21T01:09:29.715Z,2.00
2018-06-21T01:11:58.319Z,1.80
2018-06-21T01:14:26.756Z,2.37
2018-06-21T01:16:55.650Z,2.03
2018-06-21T01:19:23.999Z,2.33
2018-06-21T01:21:52.371Z,2.10
2018-06-21T01:24:22.879Z,1.97
2018-06-21T01:26:51.515Z,1.90
2018-06-21T01:29:20.403Z,2.27
2018-06-21T01:31:48.855Z,1.60
2018-06-21T01:34:16.930Z,1.93
2018-06-21T01:36:45.283Z,2.03
2018-06-21T01:39:13.963Z,1.93
2018-06-21T01:41:42.554Z,1.80
2018-06-21T01:44:11.034Z,3.83
2018-06-21T01:46:39.090Z,1.80
2018-06-21T01:49:07.443Z,2.30
2018-06-21T01:51:35.810Z,2.37
2018-06-21T01:54:05.315Z,1.97
2018-06-21T01:56:34.863Z,2.10
2018-06-21T01:59:03.355Z,2.47
2018-06-21T02:01:31.712Z,2.20
2018-06-21T02:04:00.443Z,1.73
2018-06-21T02:06:28.891Z,2.33
2018-06-21T02:08:57.248Z,2.30
2018-06-21T02:11:25.648Z,2.70
2018-06-21T02:13:54.069Z,2.60
2018-06-21T02:16:22.707Z,2.20
2018-06-21T02:18:51.079Z,1.70
2018-06-21T02:21:19.451Z,2.00
2018-06-21T02:23:47.811Z,2.03
2018-06-21T02:26:16.179Z,1.70
2018-06-21T02:28:44.555Z,1.93
2018-06-21T02:31:12.919Z,2.10
2018-06-21T02:33:41.309Z,2.50
2018-06-21T02:36:10.015Z,2.20
2018-06-21T02:38:38.407Z,1.83
2018-06-21T02:41:07.164Z,2.30
2018-06-21T02:43:35.799Z,2.07
2018-06-21T02:46:04.433Z,2.83
2018-06-21T02:48:33.115Z,2.00
2018-06-21T02:51:01.856Z,2.13
2018-06-21T02:53:30.311Z,1.97
2018-06-21T02:55:58.675Z,2.40
2018-06-21T02:58:27.395Z,2.00
2018-06-21T03:00:56.016Z,2.80
2018-06-21T03:03:24.391Z,2.77
2018-06-21T03:05:53.204Z,1.90
2018-06-21T03:08:21.722Z,2.97
2018-06-21T03:10:50.108Z,2.37
2018-06-21T03:13:18.811Z,2.73
2018-06-21T03:15:47.575Z,2.60
2018-06-21T03:18:15.927Z,2.70
2018-06-21T03:20:44.798Z,2.00
2018-06-21T03:23:13.168Z,2.43
2018-06-21T03:25:41.759Z,2.53
2018-06-21T03:28:10.163Z,2.87
2018-06-21T03:30:38.747Z,2.47
2018-06-21T03:33:07.100Z,2.03
2018-06-21T03:35:35.820Z,2.73
2018-06-21T03:38:04.247Z,2.63
2018-06-21T03:40:32.895Z,2.80
2018-06-21T03:43:01.803Z,2.90
2018-06-21T03:45:30.256Z,2.53
2018-06-21T03:47:59.039Z,2.67
2018-06-21T03:50:27.899Z,2.43
2018-06-21T03:52:56.532Z,2.50
2018-06-21T03:55:24.931Z,2.57
2018-06-21T03:57:54.259Z,1.97
2018-06-21T04:00:23.219Z,2.53
2018-06-21T04:02:52.463Z,2.60
2018-06-21T04:05:20.880Z,2.07
2018-06-21T04:07:49.460Z,2.40
2018-06-21T04:10:17.812Z,2.13
2018-06-21T04:12:47.188Z,3.30
2018-06-21T04:15:15.617Z,3.30
2018-06-21T04:17:44.203Z,2.53
2018-06-21T04:20:12.553Z,2.07
2018-06-21T04:22:41.142Z,2.57
2018-06-21T04:25:09.503Z,2.60
2018-06-21T04:27:38.311Z,3.53
2018-06-21T04:30:07.664Z,2.70
2018-06-21T04:32:36.684Z,3.00
2018-06-21T04:35:05.605Z,3.10
2018-06-21T04:37:34.251Z,2.53
2018-06-21T04:40:02.611Z,2.77
2018-06-21T04:42:31.520Z,2.60
2018-06-21T04:44:59.879Z,3.00
2018-06-21T04:47:28.252Z,2.77
2018-06-21T04:49:57.176Z,2.10
2018-06-21T04:52:25.664Z,2.80
2018-06-21T04:54:54.867Z,3.17
2018-06-21T04:57:23.432Z,2.13
2018-06-21T04:59:52.116Z,3.00
2018-06-21T05:02:20.466Z,2.93
2018-06-21T05:04:49.087Z,2.03
2018-06-21T05:07:17.454Z,2.43
2018-06-21T05:09:45.838Z,2.57
2018-06-21T05:12:14.467Z,2.83
2018-06-21T05:14:42.807Z,2.23
2018-06-21T05:17:11.163Z,2.73
2018-06-21T05:19:39.771Z,2.33
2018-06-21T05:22:08.439Z,2.80
2018-06-21T05:24:37.074Z,2.40
2018-06-21T05:27:05.436Z,2.23
2018-06-21T05:29:34.128Z,2.60
2018-06-21T05:32:02.948Z,2.40
2018-06-21T05:34:31.322Z,2.70
2018-06-21T05:36:59.871Z,2.73
2018-06-21T05:39:28.999Z,2.50
2018-06-21T05:41:57.379Z,2.30
2018-06-21T05:44:26.140Z,2.20
2018-06-21T05:46:54.830Z,2.63
2018-06-21T05:49:23.503Z,2.83
2018-06-21T05:51:52.199Z,2.23
2018-06-21T05:54:20.840Z,2.13
2018-06-21T05:56:49.464Z,2.13
2018-06-21T05:59:18.115Z,2.33
2018-06-21T06:01:46.799Z,2.13
2018-06-21T06:04:15.443Z,2.80
2018-06-21T06:06:44.014Z,2.50
2018-06-21T06:09:12.863Z,2.67
2018-06-21T06:11:41.495Z,2.50
2018-06-21T06:14:09.937Z,2.63
2018-06-21T06:16:38.540Z,2.43
2018-06-21T06:19:06.889Z,2.67
2018-06-21T06:21:35.275Z,2.23
2018-06-21T06:24:03.942Z,3.00
2018-06-21T06:26:32.339Z,3.30
2018-06-21T06:29:00.692Z,2.53
2018-06-21T06:31:29.073Z,2.67
2018-06-21T06:33:57.722Z,2.40
2018-06-21T06:36:26.088Z,2.93
2018-06-21T06:38:55.135Z,2.57
2018-06-21T06:41:23.792Z,2.93
2018-06-21T06:43:52.451Z,2.80
2018-06-21T06:46:20.881Z,3.07
2018-06-21T06:48:49.503Z,3.37
2018-06-21T06:51:17.880Z,2.93
2018-06-21T06:53:46.230Z,2.80
2018-06-21T06:56:14.904Z,2.40
2018-06-21T06:58:43.591Z,2.87
2018-06-21T07:01:12.287Z,2.53
2018-06-21T07:03:40.681Z,2.73
2018-06-21T07:06:09.047Z,3.07
2018-06-21T07:08:37.404Z,2.37
2018-06-21T07:11:05.980Z,2.30
2018-06-21T07:13:34.683Z,2.33
2018-06-21T07:16:03.309Z,2.33
2018-06-21T07:18:31.672Z,2.33
2018-06-21T07:21:00.272Z,2.23
2018-06-21T07:23:28.651Z,2.07
2018-06-21T07:25:57.004Z,1.87
2018-06-21T07:28:25.730Z,2.77
2018-06-21T07:30:54.083Z,2.20
2018-06-21T07:33:22.439Z,2.33
2018-06-21T07:35:51.106Z,2.77
2018-06-21T07:38:19.498Z,1.70
2018-06-21T07:40:47.872Z,2.13
2018-06-21T07:43:16.235Z,2.27
2018-06-21T07:45:45.172Z,2.10
2018-06-21T07:48:13.816Z,2.00
2018-06-21T07:50:42.435Z,1.90
2018-06-21T07:53:11.111Z,1.97
2018-06-21T07:55:39.879Z,1.87
2018-06-21T07:58:08.895Z,1.80
2018-06-21T08:00:37.559Z,1.93
2018-06-21T08:03:05.933Z,1.83
2018-06-21T08:05:34.315Z,2.27
2018-06-21T08:08:03.423Z,1.40
2018-06-21T08:10:32.392Z,1.90
2018-06-21T08:13:01.213Z,2.07
2018-06-21T08:15:29.779Z,1.77
2018-06-21T08:17:58.453Z,1.90
2018-06-21T08:20:27.098Z,1.37
2018-06-21T08:22:55.487Z,1.53
2018-06-21T08:25:24.302Z,1.43
2018-06-21T08:27:52.712Z,1.30
2018-06-21T08:30:21.106Z,1.33
2018-06-21T08:32:49.471Z,1.30
2018-06-21T08:35:18.354Z,1.27
2018-06-21T08:37:46.824Z,1.23
2018-06-21T08:40:15.176Z,1.60
2018-06-21T08:42:43.916Z,1.63
2018-06-21T08:45:12.759Z,1.30
2018-06-21T08:47:41.535Z,1.30
2018-06-21T08:50:09.879Z,1.90
2018-06-21T08:52:38.575Z,1.77
2018-06-21T08:55:06.976Z,1.80
2018-06-21T08:57:35.487Z,1.77
2018-06-21T09:00:03.915Z,2.03
2018-06-21T09:02:32.860Z,1.77
2018-06-21T09:05:01.743Z,1.70
2018-06-21T09:07:30.137Z,1.73
2018-06-21T09:09:58.845Z,1.83
2018-06-21T09:12:31.468Z,1.47
2018-06-21T09:15:00.167Z,1.40
2018-06-21T09:17:29.051Z,1.87
2018-06-21T09:19:57.460Z,1.47
2018-06-21T09:22:25.811Z,1.73
2018-06-21T09:24:54.824Z,1.73
2018-06-21T09:27:23.201Z,1.70
2018-06-21T09:29:51.552Z,1.80
2018-06-21T09:32:20.492Z,2.23
2018-06-21T09:34:48.843Z,1.80
2018-06-21T09:37:21.432Z,2.20
2018-06-21T09:39:55.247Z,1.67
2018-06-21T09:42:28.823Z,2.10
2018-06-21T09:44:58.141Z,1.70
2018-06-21T09:47:32.376Z,1.87
2018-06-21T09:50:01.721Z,2.07
2018-06-21T09:52:30.210Z,1.50
2018-06-21T09:54:58.729Z,1.80
2018-06-21T09:57:27.099Z,2.23
2018-06-21T09:59:55.475Z,1.87
2018-06-21T10:02:23.823Z,1.87
2018-06-21T10:04:52.476Z,2.60
2018-06-21T10:07:20.842Z,2.33
2018-06-21T10:09:49.479Z,2.40
2018-06-21T10:12:18.803Z,1.83
2018-06-21T10:14:47.164Z,2.40
2018-06-21T10:17:15.531Z,2.30
2018-06-21T10:19:43.911Z,2.00
2018-06-21T10:22:12.512Z,2.10
2018-06-21T10:24:40.879Z,2.40
2018-06-21T10:27:09.303Z,1.93
2018-06-21T10:29:37.991Z,2.23
2018-06-21T10:32:06.588Z,1.77
2018-06-21T10:34:34.965Z,2.47
2018-06-21T10:37:03.588Z,1.70
2018-06-21T10:39:31.940Z,2.60
2018-06-21T10:42:00.323Z,1.83
2018-06-21T10:44:28.675Z,3.10
2018-06-21T10:46:56.774Z,2.47
2018-06-21T10:49:25.125Z,1.93
2018-06-21T10:51:53.487Z,2.83
2018-06-21T10:54:22.427Z,2.20
2018-06-21T10:56:51.316Z,2.40
2018-06-21T10:59:20.214Z,2.50
2018-06-21T11:01:49.095Z,2.10
2018-06-21T11:04:18.039Z,2.00
2018-06-21T11:06:46.991Z,2.30
2018-06-21T11:09:15.367Z,2.03
2018-06-21T11:11:43.739Z,2.43
2018-06-21T11:14:12.635Z,2.30
2018-06-21T11:16:41.312Z,2.10
2018-06-21T11:19:09.703Z,1.73
2018-06-21T11:21:38.303Z,2.83
2018-06-21T11:24:07.263Z,1.57
2018-06-21T11:26:35.847Z,2.23
2018-06-21T11:29:04.243Z,2.30
2018-06-21T11:31:32.599Z,2.40
2018-06-21T11:34:00.950Z,1.20
2018-06-21T11:36:29.575Z,2.37
2018-06-21T11:38:58.252Z,2.13
2018-06-21T11:41:26.632Z,2.03
2018-06-21T11:43:55.516Z,2.10
2018-06-21T11:46:24.415Z,2.10
2018-06-21T11:48:52.781Z,2.10
2018-06-21T11:51:21.144Z,2.10
2018-06-21T11:53:49.788Z,1.67
2018-06-21T11:56:18.406Z,1.80
2018-06-21T11:58:46.771Z,1.87
2018-06-21T12:01:15.151Z,1.43
2018-06-21T12:03:43.779Z,1.53
2018-06-21T12:06:12.184Z,1.80
2018-06-21T12:08:40.875Z,1.97
2018-06-21T12:11:09.747Z,2.03
2018-06-21T12:13:38.431Z,2.30
2018-06-21T12:16:06.926Z,2.07
2018-06-21T12:18:35.575Z,1.20
2018-06-21T12:21:03.945Z,1.50
2018-06-21T12:23:32.592Z,2.13
2018-06-21T12:26:01.326Z,2.00
2018-06-21T12:28:29.857Z,1.70
2018-06-21T12:30:58.251Z,1.47
2018-06-21T12:33:26.619Z,2.00
2018-06-21T12:35:54.975Z,2.00
2018-06-21T12:38:23.340Z,1.47
2018-06-21T12:40:52.056Z,2.07
2018-06-21T12:43:20.172Z,1.97
2018-06-21T12:45:48.844Z,1.90
2018-06-21T12:48:17.228Z,1.97
2018-06-21T12:50:45.835Z,2.23
2018-06-21T12:53:14.455Z,2.33
2018-06-21T12:55:42.827Z,1.87
2018-06-21T12:58:11.580Z,2.10
2018-06-21T13:00:39.984Z,1.80
2018-06-21T13:03:08.644Z,2.10
2018-06-21T13:05:37.273Z,1.80
2018-06-21T13:08:05.916Z,1.97
2018-06-21T13:10:46.089Z,1.67
2018-06-21T13:13:22.661Z,1.97
2018-06-21T13:15:51.092Z,1.37
2018-06-21T13:18:19.459Z,1.10
2018-06-21T13:20:47.857Z,1.10
2018-06-21T13:23:16.539Z,1.43
2018-06-21T13:25:45.167Z,1.50
2018-06-21T13:28:13.526Z,1.17
2018-06-21T13:30:42.200Z,1.80
2018-06-21T13:33:10.563Z,2.13
2018-06-21T13:35:39.512Z,1.20
2018-06-21T13:38:07.908Z,1.40
2018-06-21T13:40:36.531Z,0.93
2018-06-21T13:43:05.396Z,1.10
2018-06-21T13:45:33.799Z,1.10
2018-06-21T13:48:02.496Z,1.30
2018-06-21T13:50:30.871Z,0.70
2018-06-21T13:52:59.259Z,1.00
2018-06-21T13:55:27.637Z,1.23
2018-06-21T13:57:56.363Z,1.10
2018-06-21T14:00:24.745Z,1.00
2018-06-21T14:02:53.479Z,1.33
2018-06-21T14:05:21.859Z,1.40
2018-06-21T14:07:50.260Z,0.90
2018-06-21T14:10:18.687Z,1.03
2018-06-21T14:12:47.355Z,1.00
2018-06-21T14:15:15.975Z,0.90
2018-06-21T14:17:44.864Z,1.20
2018-06-21T14:20:13.263Z,1.10
2018-06-21T14:22:41.653Z,1.40
2018-06-21T14:25:10.459Z,1.30
2018-06-21T14:27:38.822Z,1.10
2018-06-21T14:30:07.559Z,1.10
2018-06-21T14:32:36.780Z,1.13
2018-06-21T14:35:05.297Z,1.40
2018-06-21T14:37:33.666Z,1.10
2018-06-21T14:40:02.142Z,1.43
2018-06-21T14:42:30.851Z,1.10
2018-06-21T14:44:59.811Z,1.00
2018-06-21T14:47:28.432Z,0.97
2018-06-21T14:49:56.802Z,1.30
2018-06-21T14:52:25.989Z,1.20
2018-06-21T14:54:54.379Z,1.00
2018-06-21T14:57:22.738Z,0.67
2018-06-21T14:59:51.799Z,0.90
2018-06-21T15:02:21.299Z,1.07
2018-06-21T15:04:50.291Z,1.33
2018-06-21T15:07:19.011Z,0.90
2018-06-21T15:09:47.363Z,0.90
2018-06-21T15:12:15.740Z,0.90
2018-06-21T15:14:44.092Z,1.23
2018-06-21T15:17:12.720Z,1.17
2018-06-21T15:19:41.087Z,1.10
2018-06-21T15:22:09.767Z,1.90
2018-06-21T15:24:38.391Z,1.03
2018-06-21T15:27:07.107Z,1.10
2018-06-21T15:29:35.471Z,1.00
2018-06-21T15:32:03.847Z,1.40
2018-06-21T15:34:31.931Z,0.70
2018-06-21T15:37:00.303Z,1.07
2018-06-21T15:39:28.959Z,1.40
2018-06-21T15:41:57.314Z,0.93
2018-06-21T15:44:25.695Z,1.00
2018-06-21T15:46:54.367Z,1.77
2018-06-21T15:49:22.756Z,1.10
2018-06-21T15:51:51.440Z,1.07
2018-06-21T15:54:19.835Z,1.13
2018-06-21T15:56:48.500Z,1.80
2018-06-21T15:59:16.872Z,0.80
2018-06-21T16:01:45.243Z,1.10
2018-06-21T16:04:13.935Z,1.10
2018-06-21T16:06:42.459Z,1.53
2018-06-21T16:09:11.024Z,1.27
2018-06-21T16:11:39.912Z,1.00
2018-06-21T16:14:08.309Z,1.40
2018-06-21T16:16:36.951Z,1.50
2018-06-21T16:19:05.667Z,1.93
2018-06-21T16:21:34.330Z,1.10
2018-06-21T16:24:02.811Z,1.10
2018-06-21T16:26:31.185Z,2.07
2018-06-21T16:29:00.111Z,2.77
2018-06-21T16:31:28.983Z,2.17
2018-06-21T16:33:57.345Z,3.10
2018-06-21T16:36:25.878Z,1.33
2018-06-21T16:38:54.324Z,1.97
2018-06-21T16:41:22.995Z,1.37
2018-06-21T16:43:51.639Z,1.10
2018-06-21T16:46:20.953Z,1.10
2018-06-21T16:48:49.632Z,0.80
2018-06-21T16:51:18.527Z,1.27
2018-06-21T16:53:47.203Z,1.30
2018-06-21T16:56:15.743Z,1.53
2018-06-21T16:58:44.706Z,1.20
2018-06-21T17:01:13.448Z,1.70
2018-06-21T17:03:42.361Z,1.53
2018-06-21T17:06:10.859Z,2.17
2018-06-21T17:08:39.235Z,2.07
2018-06-21T17:11:07.599Z,1.83
2018-06-21T17:13:36.284Z,1.80
2018-06-21T17:16:04.892Z,2.47
2018-06-21T17:18:33.803Z,1.30
2018-06-21T17:21:02.609Z,2.07
2018-06-21T17:23:31.308Z,2.20
2018-06-21T17:25:59.996Z,1.37
2018-06-21T17:28:28.458Z,1.93
2018-06-21T17:30:56.951Z,1.40
2018-06-21T17:33:25.310Z,1.80
2018-06-21T17:35:53.712Z,1.70
2018-06-21T17:38:22.550Z,1.80
2018-06-21T17:40:50.915Z,2.37
2018-06-21T17:43:19.544Z,1.40
2018-06-21T17:45:47.931Z,2.47
2018-06-21T17:48:16.323Z,1.50
2018-06-21T17:50:44.918Z,2.30
2018-06-21T17:53:14.187Z,1.60
2018-06-21T17:55:43.359Z,1.57
2018-06-21T17:58:12.341Z,1.50
2018-06-21T18:00:40.736Z,1.87
2018-06-21T18:03:09.375Z,1.27
2018-06-21T18:05:37.988Z,1.37
2018-06-21T18:08:06.461Z,1.37
2018-06-21T18:10:35.082Z,1.60
2018-06-21T18:13:03.776Z,0.80
2018-06-21T18:15:32.227Z,1.13
2018-06-21T18:18:00.619Z,1.10
2018-06-21T18:20:29.083Z,1.30
2018-06-21T18:22:57.486Z,0.97
2018-06-21T18:25:25.851Z,1.20
2018-06-21T18:27:55.554Z,0.90
2018-06-21T18:30:23.940Z,1.40
2018-06-21T18:32:52.328Z,0.87
2018-06-21T18:35:21.200Z,1.00
2018-06-21T18:37:49.638Z,1.00
2018-06-21T18:40:18.012Z,1.30
2018-06-21T18:42:46.762Z,0.77
2018-06-21T18:45:21.612Z,1.03
2018-06-21T18:47:49.971Z,0.83
2018-06-21T18:50:18.705Z,1.00
2018-06-21T18:52:47.123Z,0.80
2018-06-21T18:55:15.711Z,1.00
2018-06-21T18:57:44.063Z,0.97
2018-06-21T19:00:12.808Z,0.93
2018-06-21T19:02:41.169Z,0.80
2018-06-21T19:05:10.022Z,0.80
2018-06-21T19:07:42.948Z,1.50
2018-06-21T19:10:17.012Z,1.10
2018-06-21T19:12:45.684Z,0.90
2018-06-21T19:15:14.100Z,1.17
2018-06-21T19:17:42.460Z,0.70
2018-06-21T19:20:10.901Z,0.97
2018-06-21T19:22:39.546Z,0.70
2018-06-21T19:25:08.319Z,0.87
2018-06-21T19:27:36.933Z,0.97
2018-06-21T19:30:05.334Z,0.70
2018-06-21T19:32:33.748Z,0.70
2018-06-21T19:35:02.188Z,0.67
2018-06-21T19:37:30.718Z,0.87
2018-06-21T19:39:59.165Z,0.60
2018-06-21T19:42:27.800Z,1.10
2018-06-21T19:44:56.327Z,0.63
2018-06-21T19:47:24.997Z,1.30
2018-06-21T19:49:53.504Z,0.70
2018-06-21T19:52:21.872Z,0.60
2018-06-21T19:54:50.326Z,0.57
2018-06-21T19:57:19.237Z,0.70
2018-06-21T19:59:48.167Z,0.57
2018-06-21T20:02:16.795Z,1.03
2018-06-21T20:04:45.640Z,0.60
2018-06-21T20:07:14.247Z,0.70
2018-06-21T20:09:42.967Z,1.07
2018-06-21T20:12:11.539Z,0.80
2018-06-21T20:14:40.752Z,0.80
2018-06-21T20:17:09.089Z,0.60
2018-06-21T20:19:42.911Z,0.70
2018-06-21T20:22:11.387Z,0.60
2018-06-21T20:24:39.935Z,0.60
2018-06-21T20:27:09.017Z,0.70
2018-06-21T20:29:37.806Z,0.60
2018-06-21T20:32:06.503Z,0.80
2018-06-21T20:34:34.894Z,1.67
2018-06-21T20:37:03.759Z,0.70
2018-06-21T20:39:32.656Z,0.60
2018-06-21T20:42:01.291Z,0.83
2018-06-21T20:44:29.627Z,0.70
2018-06-21T20:46:57.985Z,1.00
2018-06-21T20:49:26.584Z,0.57
2018-06-21T20:51:54.960Z,0.70
2018-06-21T20:54:23.339Z,0.70
2018-06-21T20:56:52.021Z,0.80
2018-06-21T20:59:20.611Z,0.60
2018-06-21T21:01:49.288Z,0.80
2018-06-21T21:04:17.651Z,0.90
2018-06-21T21:06:46.108Z,0.70
2018-06-21T21:09:14.591Z,0.90
2018-06-21T21:11:43.261Z,0.73
2018-06-21T21:14:11.625Z,0.97
2018-06-21T21:16:40.040Z,0.60
2018-06-21T21:19:08.771Z,0.60
2018-06-21T21:21:37.127Z,0.70
2018-06-21T21:24:05.820Z,0.90
2018-06-21T21:26:34.624Z,0.90
2018-06-21T21:29:03.528Z,0.63
2018-06-21T21:31:32.214Z,0.53
2018-06-21T21:34:01.570Z,2.13
2018-06-21T21:36:30.603Z,0.57
2018-06-21T21:38:58.992Z,0.80
2018-06-21T21:41:27.363Z,0.73
2018-06-21T21:43:55.831Z,0.63
2018-06-21T21:46:24.451Z,0.73
2018-06-21T21:48:52.811Z,0.70
2018-06-21T21:51:21.164Z,0.70
2018-06-21T21:53:51.552Z,1.20
2018-06-21T21:56:20.163Z,0.70
2018-06-21T21:58:48.703Z,0.90
2018-06-21T22:01:17.063Z,0.67
2018-06-21T22:03:45.703Z,0.60
2018-06-21T22:06:14.615Z,0.60
2018-06-21T22:08:42.976Z,0.60
2018-06-21T22:11:11.352Z,0.77
2018-06-21T22:13:39.772Z,0.80
2018-06-21T22:16:09.032Z,1.37
2018-06-21T22:18:37.732Z,0.93
2018-06-21T22:21:06.308Z,0.70
2018-06-21T22:23:34.683Z,0.70
2018-06-21T22:26:03.367Z,0.80
2018-06-21T22:28:31.998Z,0.83
2018-06-21T22:31:00.702Z,0.67
2018-06-21T22:33:29.078Z,0.63
2018-06-21T22:35:57.723Z,0.70
2018-06-21T22:38:26.084Z,0.67
2018-06-21T22:40:54.763Z,0.77
2018-06-21T22:43:23.344Z,0.70
2018-06-21T22:45:52.028Z,0.70
2018-06-21T22:48:20.920Z,0.63
2018-06-21T22:50:49.283Z,0.50
2018-06-21T22:53:17.914Z,0.73
2018-06-21T22:55:46.287Z,0.63
2018-06-21T22:58:14.642Z,0.93
2018-06-21T23:00:43.316Z,0.60
2018-06-21T23:03:11.677Z,0.60
2018-06-21T23:05:40.097Z,0.60
2018-06-21T23:08:08.471Z,0.80
2018-06-21T23:10:37.088Z,0.60
2018-06-21T23:13:05.931Z,0.60
2018-06-21T23:15:34.279Z,0.50
2018-06-21T23:18:02.336Z,1.17
2018-06-21T23:20:31.272Z,0.80
2018-06-21T23:22:59.923Z,0.60
2018-06-21T23:25:28.700Z,0.67
2018-06-21T23:27:57.103Z,0.93
2018-06-21T23:30:26.013Z,0.83
2018-06-21T23:32:54.403Z,0.70
2018-06-21T23:35:22.760Z,1.43
2018-06-21T23:37:51.207Z,0.80
2018-06-21T23:40:19.607Z,0.70
2018-06-21T23:42:47.957Z,0.70
2018-06-21T23:45:16.327Z,0.77
2018-06-21T23:47:44.676Z,0.70
2018-06-21T23:50:13.295Z,0.70
2018-06-21T23:52:42.257Z,1.20
2018-06-21T23:55:11.160Z,1.00
2018-06-21T23:57:40.095Z,0.70
